createdAt,value
2022-10-04T00:00:28.734Z,9.45
2022-10-04T00:02:34.488Z,9.45
2022-10-04T00:04:43.946Z,9.42
2022-10-04T00:06:50.028Z,9.38
2022-10-04T00:08:56.287Z,9.37
2022-10-04T00:11:05.132Z,9.35
2022-10-04T00:13:16.319Z,9.27
2022-10-04T00:15:21.787Z,9.23
2022-10-04T00:17:27.876Z,9.20
2022-10-04T00:19:43.338Z,9.16
2022-10-04T00:22:12.619Z,9.12
2022-10-04T00:24:22.113Z,9.08
2022-10-04T00:27:09.175Z,9.08
2022-10-04T00:29:31.967Z,9.07
2022-10-04T00:31:35.000Z,9.11
2022-10-04T00:33:39.787Z,9.15
2022-10-04T00:35:50.751Z,9.18
2022-10-04T00:37:58.442Z,9.17
2022-10-04T00:40:12.404Z,9.21
2022-10-04T00:42:50.841Z,9.21
2022-10-04T00:44:58.102Z,9.22
2022-10-04T00:47:02.604Z,9.25
2022-10-04T00:49:08.634Z,9.25
2022-10-04T00:51:16.220Z,9.26
2022-10-04T00:53:31.178Z,9.27
2022-10-04T00:55:37.584Z,9.29
2022-10-04T00:57:43.015Z,9.27
2022-10-04T00:59:47.958Z,9.27
2022-10-04T01:01:54.082Z,9.27
2022-10-04T01:03:58.864Z,9.27
2022-10-04T01:06:05.979Z,9.28
2022-10-04T01:08:12.020Z,9.28
2022-10-04T01:10:19.737Z,9.25
2022-10-04T01:12:39.906Z,9.25
2022-10-04T01:14:49.111Z,9.21
2022-10-04T01:16:52.781Z,9.21
2022-10-04T01:18:56.190Z,9.14
2022-10-04T01:21:01.741Z,9.09
2022-10-04T01:23:06.452Z,9.02
2022-10-04T01:25:09.737Z,8.95
2022-10-04T01:27:38.564Z,8.91
2022-10-04T01:29:41.558Z,8.87
2022-10-04T01:31:46.575Z,8.86
2022-10-04T01:33:51.325Z,8.83
2022-10-04T01:35:54.315Z,8.85
2022-10-04T01:37:57.321Z,8.83
2022-10-04T01:40:02.269Z,8.83
2022-10-04T01:42:08.531Z,8.81
2022-10-04T01:44:14.282Z,8.81
2022-10-04T01:46:21.576Z,8.80
2022-10-04T01:48:26.616Z,8.81
2022-10-04T01:50:31.367Z,8.78
2022-10-04T01:52:36.951Z,8.79
2022-10-04T01:54:42.837Z,8.78
2022-10-04T01:56:49.402Z,8.74
2022-10-04T01:58:54.076Z,8.71
2022-10-04T02:01:01.045Z,8.65
2022-10-04T02:03:06.202Z,8.63
2022-10-04T02:05:12.232Z,8.62
2022-10-04T02:07:16.910Z,8.59
2022-10-04T02:09:21.135Z,8.55
2022-10-04T02:11:26.532Z,8.55
2022-10-04T02:13:41.789Z,8.53
2022-10-04T02:15:44.885Z,8.51
2022-10-04T02:17:48.762Z,8.52
2022-10-04T02:19:52.155Z,8.50
2022-10-04T02:21:56.733Z,8.50
2022-10-04T02:23:59.743Z,8.48
2022-10-04T02:26:05.768Z,8.47
2022-10-04T02:28:11.722Z,8.46
2022-10-04T02:30:16.166Z,8.43
2022-10-04T02:32:36.729Z,8.37
2022-10-04T02:34:40.767Z,8.36
2022-10-04T02:36:43.746Z,8.38
2022-10-04T02:38:52.636Z,8.37
2022-10-04T02:40:58.619Z,8.38
2022-10-04T02:43:04.433Z,8.45
2022-10-04T02:45:13.685Z,8.49
2022-10-04T02:47:20.491Z,8.48
2022-10-04T02:49:29.854Z,8.52
2022-10-04T02:51:35.150Z,8.54
2022-10-04T02:53:43.346Z,8.58
2022-10-04T02:55:47.581Z,8.59
2022-10-04T02:57:52.420Z,8.59
2022-10-04T03:00:08.359Z,8.54
2022-10-04T03:02:29.499Z,8.52
2022-10-04T03:04:34.829Z,8.46
2022-10-04T03:06:37.814Z,8.42
2022-10-04T03:08:47.444Z,8.38
2022-10-04T03:10:50.756Z,8.37
2022-10-04T03:12:54.108Z,8.35
2022-10-04T03:14:57.131Z,8.35
2022-10-04T03:17:03.942Z,8.34
2022-10-04T03:19:08.831Z,8.31
2022-10-04T03:21:14.554Z,8.27
2022-10-04T03:23:18.807Z,8.22
2022-10-04T03:25:23.935Z,8.19
2022-10-04T03:27:33.117Z,8.18
2022-10-04T03:29:36.429Z,8.20
2022-10-04T03:31:42.146Z,8.19
2022-10-04T03:33:45.576Z,8.17
2022-10-04T03:35:51.750Z,8.16
2022-10-04T03:37:54.728Z,8.15
2022-10-04T03:39:58.303Z,8.13
2022-10-04T03:42:04.671Z,8.13
2022-10-04T03:44:09.059Z,8.10
2022-10-04T03:46:13.283Z,8.12
2022-10-04T03:48:30.194Z,8.13
2022-10-04T03:50:36.414Z,8.11
2022-10-04T03:52:51.147Z,8.14
2022-10-04T03:54:55.898Z,8.12
2022-10-04T03:56:59.811Z,8.13
2022-10-04T03:59:04.143Z,8.14
2022-10-04T04:01:15.138Z,8.20
2022-10-04T04:03:20.910Z,8.19
2022-10-04T04:05:26.837Z,8.19
2022-10-04T04:07:31.364Z,8.19
2022-10-04T04:09:40.697Z,8.20
2022-10-04T04:11:44.275Z,8.19
2022-10-04T04:13:50.806Z,8.21
2022-10-04T04:15:55.685Z,8.21
2022-10-04T04:18:01.385Z,8.25
2022-10-04T04:20:07.837Z,8.23
2022-10-04T04:22:15.971Z,8.19
2022-10-04T04:24:23.742Z,8.18
2022-10-04T04:26:34.916Z,8.05
2022-10-04T04:28:41.485Z,8.01
2022-10-04T04:30:46.452Z,7.99
2022-10-04T04:32:51.310Z,7.99
2022-10-04T04:34:55.180Z,8.01
2022-10-04T04:36:59.925Z,8.01
2022-10-04T04:39:42.755Z,7.97
2022-10-04T04:41:50.539Z,7.96
2022-10-04T04:43:54.030Z,7.94
2022-10-04T04:46:22.420Z,7.92
2022-10-04T04:48:22.807Z,7.96
2022-10-04T04:50:27.966Z,7.93
2022-10-04T04:52:32.695Z,7.93
2022-10-04T04:54:35.735Z,7.92
2022-10-04T04:56:38.768Z,7.94
2022-10-04T04:58:46.051Z,7.92
2022-10-04T05:00:54.604Z,7.91
2022-10-04T05:02:59.123Z,7.94
2022-10-04T05:05:22.400Z,7.96
2022-10-04T05:07:25.503Z,7.96
2022-10-04T05:09:31.323Z,7.96
2022-10-04T05:11:36.236Z,7.98
2022-10-04T05:13:44.071Z,7.99
2022-10-04T05:15:47.684Z,8.01
2022-10-04T05:17:50.728Z,8.00
2022-10-04T05:19:54.686Z,8.01
2022-10-04T05:21:58.990Z,8.05
2022-10-04T05:24:10.851Z,8.06
2022-10-04T05:26:15.412Z,8.04
2022-10-04T05:28:19.215Z,8.07
2022-10-04T05:30:45.380Z,8.10
2022-10-04T05:32:54.815Z,8.12
2022-10-04T05:34:59.460Z,8.12
2022-10-04T05:37:22.248Z,8.15
2022-10-04T05:39:28.652Z,8.16
2022-10-04T05:41:35.981Z,8.16
2022-10-04T05:43:46.785Z,8.15
2022-10-04T05:46:12.290Z,8.11
2022-10-04T05:48:15.380Z,8.11
2022-10-04T05:50:21.142Z,8.11
2022-10-04T05:52:30.495Z,8.12
2022-10-04T05:54:37.873Z,8.09
2022-10-04T05:57:19.194Z,8.09
2022-10-04T05:59:42.167Z,8.07
2022-10-04T06:01:53.997Z,8.04
2022-10-04T06:04:09.874Z,8.02
2022-10-04T06:06:17.571Z,8.01
2022-10-04T06:08:30.320Z,8.05
2022-10-04T06:10:53.346Z,8.12
2022-10-04T06:13:00.396Z,8.16
2022-10-04T06:15:27.011Z,8.19
2022-10-04T06:17:50.294Z,8.26
2022-10-04T06:20:15.340Z,8.26
2022-10-04T06:22:19.440Z,8.32
2022-10-04T06:24:27.078Z,8.37
2022-10-04T06:26:35.585Z,8.41
2022-10-04T06:28:41.904Z,8.44
2022-10-04T06:30:56.139Z,8.46
2022-10-04T06:33:09.963Z,8.50
2022-10-04T06:35:36.703Z,8.56
2022-10-04T06:38:14.747Z,8.60
2022-10-04T06:40:50.368Z,8.67
2022-10-04T06:43:04.199Z,8.70
2022-10-04T06:45:21.972Z,8.71
2022-10-04T06:47:39.166Z,8.73
2022-10-04T06:49:47.372Z,8.75
2022-10-04T06:52:17.402Z,8.82
2022-10-04T06:54:35.216Z,8.92
2022-10-04T06:56:55.958Z,8.97
2022-10-04T06:59:19.429Z,9.02
2022-10-04T07:01:28.646Z,9.10
2022-10-04T07:03:37.963Z,9.19
2022-10-04T07:05:46.367Z,9.28
2022-10-04T07:08:06.390Z,9.34
2022-10-04T07:10:32.250Z,9.42
2022-10-04T07:12:36.424Z,9.48
2022-10-04T07:14:44.545Z,9.54
2022-10-04T07:16:49.581Z,9.64
2022-10-04T07:18:58.980Z,9.71
2022-10-04T07:21:06.963Z,9.77
2022-10-04T07:23:15.627Z,9.83
2022-10-04T07:25:22.586Z,9.85
2022-10-04T07:27:30.162Z,9.92
2022-10-04T07:29:38.741Z,10.00
2022-10-04T07:31:45.772Z,10.08
2022-10-04T07:33:51.563Z,10.12
2022-10-04T07:36:00.437Z,10.20
2022-10-04T07:38:11.612Z,10.26
2022-10-04T07:40:22.294Z,10.32
2022-10-04T07:42:30.845Z,10.34
2022-10-04T07:44:36.516Z,10.37
2022-10-04T07:46:46.080Z,10.43
2022-10-04T07:48:49.568Z,10.51
2022-10-04T07:51:03.324Z,10.54
2022-10-04T07:53:10.149Z,10.65
2022-10-04T07:55:20.241Z,10.70
2022-10-04T07:57:27.090Z,10.73
2022-10-04T07:59:39.246Z,10.77
2022-10-04T08:01:47.392Z,10.81
2022-10-04T08:04:01.575Z,10.90
2022-10-04T08:06:11.474Z,11.02
2022-10-04T08:08:27.191Z,11.15
2022-10-04T08:10:34.046Z,11.25
2022-10-04T08:12:47.680Z,11.39
2022-10-04T08:14:56.760Z,11.59
2022-10-04T08:17:15.437Z,11.76
2022-10-04T08:19:33.307Z,11.86
2022-10-04T08:21:42.614Z,11.97
2022-10-04T08:23:56.976Z,12.13
2022-10-04T08:26:08.881Z,12.36
2022-10-04T08:28:39.028Z,12.53
2022-10-04T08:30:53.779Z,12.56
2022-10-04T08:33:06.302Z,12.59
2022-10-04T08:35:46.699Z,12.68
2022-10-04T08:38:00.582Z,12.78
2022-10-04T08:40:44.112Z,12.97
2022-10-04T08:43:09.322Z,13.21
2022-10-04T08:45:54.089Z,13.41
2022-10-04T08:48:40.055Z,13.68
2022-10-04T08:51:03.729Z,13.99
2022-10-04T08:53:33.360Z,14.33
2022-10-04T08:55:48.630Z,14.58
2022-10-04T08:58:15.252Z,14.62
2022-10-04T09:00:22.077Z,14.67
2022-10-04T09:02:41.639Z,14.86
2022-10-04T09:04:58.628Z,14.97
2022-10-04T09:07:29.628Z,15.07
2022-10-04T09:10:06.750Z,15.16
2022-10-04T09:12:44.239Z,15.18
2022-10-04T09:15:03.072Z,15.25
2022-10-04T09:17:22.263Z,15.38
2022-10-04T09:19:38.565Z,15.55
2022-10-04T09:21:50.741Z,15.61
2022-10-04T09:24:22.896Z,15.73
2022-10-04T09:26:33.170Z,15.85
2022-10-04T09:29:05.145Z,16.07
2022-10-04T09:31:23.285Z,16.21
2022-10-04T09:33:44.455Z,16.27
2022-10-04T09:36:11.069Z,16.32
2022-10-04T09:38:48.652Z,16.37
2022-10-04T09:41:22.546Z,16.52
2022-10-04T09:43:45.802Z,16.66
2022-10-04T09:46:00.678Z,16.82
2022-10-04T09:48:25.155Z,16.88
2022-10-04T09:50:42.846Z,16.98
2022-10-04T09:52:52.124Z,17.05
2022-10-04T09:55:08.470Z,17.15
2022-10-04T09:57:30.212Z,17.22
2022-10-04T09:59:53.917Z,17.25
2022-10-04T10:02:29.507Z,17.35
2022-10-04T10:04:44.533Z,17.45
2022-10-04T10:06:56.567Z,17.49
2022-10-04T10:09:09.158Z,17.60
2022-10-04T10:11:34.750Z,17.67
2022-10-04T10:14:06.594Z,17.71
2022-10-04T10:16:42.016Z,17.75
2022-10-04T10:18:53.637Z,17.74
2022-10-04T10:21:12.747Z,17.66
2022-10-04T10:23:30.358Z,17.64
2022-10-04T10:25:47.794Z,17.62
2022-10-04T10:27:58.603Z,17.61
2022-10-04T10:30:12.514Z,17.56
2022-10-04T10:32:34.563Z,17.57
2022-10-04T10:35:01.771Z,17.57
2022-10-04T10:37:15.918Z,17.67
2022-10-04T10:40:03.451Z,17.72
2022-10-04T10:42:13.158Z,17.69
2022-10-04T10:44:26.785Z,17.74
2022-10-04T10:46:44.080Z,17.74
2022-10-04T10:49:06.016Z,17.64
2022-10-04T10:51:15.177Z,17.72
2022-10-04T10:53:48.133Z,17.78
2022-10-04T10:56:20.502Z,17.83
2022-10-04T10:59:01.651Z,17.91
2022-10-04T11:01:32.538Z,17.98
2022-10-04T11:03:59.578Z,18.02
2022-10-04T11:06:20.446Z,18.14
2022-10-04T11:08:46.476Z,18.15
2022-10-04T11:11:13.545Z,18.18
2022-10-04T11:13:41.543Z,18.19
2022-10-04T11:16:07.207Z,18.25
2022-10-04T11:18:34.641Z,18.28
2022-10-04T11:21:05.681Z,18.34
2022-10-04T11:23:45.825Z,18.39
2022-10-04T11:25:59.642Z,18.38
2022-10-04T11:28:06.166Z,18.40
2022-10-04T11:30:16.820Z,18.46
2022-10-04T11:32:45.543Z,18.50
2022-10-04T11:35:21.830Z,18.55
2022-10-04T11:37:43.566Z,18.62
2022-10-04T11:40:05.593Z,18.64
2022-10-04T11:42:19.215Z,18.65
2022-10-04T11:44:43.583Z,18.69
2022-10-04T11:46:51.595Z,18.75
2022-10-04T11:49:04.631Z,18.79
2022-10-04T11:51:45.271Z,18.77
2022-10-04T11:54:30.189Z,18.73
2022-10-04T11:57:00.031Z,18.73
2022-10-04T11:59:20.298Z,18.77
2022-10-04T12:01:43.860Z,18.77
2022-10-04T12:04:03.971Z,18.77
2022-10-04T12:06:18.281Z,18.80
2022-10-04T12:08:31.019Z,18.77
2022-10-04T12:10:37.604Z,18.77
2022-10-04T12:13:05.473Z,18.73
2022-10-04T12:15:28.030Z,18.68
2022-10-04T12:17:56.550Z,18.59
2022-10-04T12:20:16.264Z,18.51
2022-10-04T12:22:29.050Z,18.51
2022-10-04T12:24:49.791Z,18.51
2022-10-04T12:27:18.730Z,18.54
2022-10-04T12:30:06.661Z,18.57
2022-10-04T12:32:15.448Z,18.58
2022-10-04T12:34:24.648Z,18.61
2022-10-04T12:36:36.889Z,18.62
2022-10-04T12:39:14.863Z,18.61
2022-10-04T12:41:29.576Z,18.63
2022-10-04T12:43:40.133Z,18.65
2022-10-04T12:45:52.757Z,18.69
2022-10-04T12:48:06.991Z,18.71
2022-10-04T12:50:18.721Z,18.76
2022-10-04T12:52:24.568Z,18.76
2022-10-04T12:54:34.411Z,18.77
2022-10-04T12:56:47.530Z,18.78
2022-10-04T12:59:01.616Z,18.81
2022-10-04T13:01:13.364Z,18.85
2022-10-04T13:03:26.970Z,18.85
2022-10-04T13:05:35.372Z,18.81
2022-10-04T13:07:51.266Z,18.80
2022-10-04T13:10:26.496Z,18.83
2022-10-04T13:12:38.524Z,18.81
2022-10-04T13:14:49.329Z,18.80
2022-10-04T13:19:23.858Z,18.77
2022-10-04T13:22:03.494Z,18.81
2022-10-04T13:24:14.133Z,18.78
2022-10-04T13:26:30.055Z,18.79
2022-10-04T13:28:39.123Z,18.81
2022-10-04T13:30:48.645Z,18.82
2022-10-04T13:33:00.097Z,18.83
2022-10-04T13:35:12.592Z,18.80
2022-10-04T13:37:30.090Z,18.81
2022-10-04T13:39:44.951Z,18.81
2022-10-04T13:42:12.329Z,18.80
2022-10-04T13:44:34.184Z,18.84
2022-10-04T13:46:41.286Z,18.85
2022-10-04T13:48:55.429Z,18.86
2022-10-04T13:51:19.316Z,18.85
2022-10-04T13:53:53.772Z,18.81
2022-10-04T13:56:19.111Z,18.84
2022-10-04T13:58:32.784Z,18.84
2022-10-04T14:00:51.509Z,18.86
2022-10-04T14:03:04.839Z,18.85
2022-10-04T14:05:52.390Z,18.86
2022-10-04T14:08:10.547Z,18.89
2022-10-04T14:10:45.865Z,18.90
2022-10-04T14:13:06.068Z,18.90
2022-10-04T14:15:30.811Z,18.90
2022-10-04T14:17:56.190Z,18.90
2022-10-04T14:20:25.857Z,18.91
2022-10-04T14:23:04.188Z,18.92
2022-10-04T14:25:35.706Z,18.93
2022-10-04T14:28:15.543Z,18.92
2022-10-04T14:30:21.316Z,18.91
2022-10-04T14:32:49.967Z,18.92
2022-10-04T14:34:58.168Z,18.95
2022-10-04T14:37:15.042Z,18.96
2022-10-04T14:40:02.978Z,18.93
2022-10-04T14:42:32.346Z,18.94
2022-10-04T14:44:56.325Z,18.94
2022-10-04T14:47:16.098Z,18.95
2022-10-04T14:49:24.525Z,18.97
2022-10-04T14:51:41.682Z,18.95
2022-10-04T14:53:53.628Z,18.94
2022-10-04T14:56:26.184Z,18.95
2022-10-04T14:58:38.368Z,18.96
2022-10-04T15:01:02.929Z,18.95
2022-10-04T15:03:28.855Z,18.95
2022-10-04T15:05:44.327Z,18.95
2022-10-04T15:07:49.959Z,18.95
2022-10-04T15:09:55.984Z,18.94
2022-10-04T15:12:27.131Z,18.93
2022-10-04T15:14:38.233Z,18.95
2022-10-04T15:16:47.585Z,18.94
2022-10-04T15:18:54.727Z,18.94
2022-10-04T15:21:01.053Z,18.92
2022-10-04T15:23:17.702Z,18.92
2022-10-04T15:25:41.751Z,18.92
2022-10-04T15:27:53.721Z,18.92
2022-10-04T15:30:09.356Z,18.91
2022-10-04T15:32:24.219Z,18.90
2022-10-04T15:34:33.383Z,18.89
2022-10-04T15:36:48.258Z,18.87
2022-10-04T15:38:57.169Z,18.87
2022-10-04T15:41:03.528Z,18.86
2022-10-04T15:43:19.898Z,18.83
2022-10-04T15:45:36.436Z,18.80
2022-10-04T15:47:55.917Z,18.77
2022-10-04T15:50:07.592Z,18.74
2022-10-04T15:52:41.791Z,18.74
2022-10-04T15:55:03.488Z,18.71
2022-10-04T15:57:19.391Z,18.70
2022-10-04T15:59:36.677Z,18.68
2022-10-04T16:01:55.971Z,18.67
2022-10-04T16:04:21.787Z,18.63
2022-10-04T16:06:26.982Z,18.59
2022-10-04T16:08:48.572Z,18.55
2022-10-04T16:11:07.740Z,18.50
2022-10-04T16:13:27.554Z,18.45
2022-10-04T16:15:32.887Z,18.40
2022-10-04T16:18:12.294Z,18.34
2022-10-04T16:20:33.425Z,18.29
2022-10-04T16:22:38.174Z,18.25
2022-10-04T16:24:45.519Z,18.22
2022-10-04T16:27:20.383Z,18.17
2022-10-04T16:29:29.959Z,18.13
2022-10-04T16:31:43.818Z,18.06
2022-10-04T16:33:56.318Z,18.00
2022-10-04T16:36:21.650Z,17.91
2022-10-04T16:38:26.244Z,17.83
2022-10-04T16:40:35.551Z,17.78
2022-10-04T16:42:49.903Z,17.75
2022-10-04T16:44:56.534Z,17.71
2022-10-04T16:47:03.088Z,17.66
2022-10-04T16:49:20.011Z,17.59
2022-10-04T16:51:48.699Z,17.51
2022-10-04T16:53:54.596Z,17.46
2022-10-04T16:56:02.308Z,17.38
2022-10-04T16:58:50.417Z,17.33
2022-10-04T17:01:34.099Z,17.29
2022-10-04T17:03:37.854Z,17.23
2022-10-04T17:05:54.333Z,17.17
2022-10-04T17:08:21.690Z,17.05
2022-10-04T17:10:34.155Z,16.98
2022-10-04T17:12:45.602Z,16.92
2022-10-04T17:14:58.627Z,16.88
2022-10-04T17:17:03.390Z,16.83
2022-10-04T17:19:20.748Z,16.77
2022-10-04T17:21:29.533Z,16.70
2022-10-04T17:24:03.396Z,16.63
2022-10-04T17:26:14.135Z,16.53
2022-10-04T17:28:26.175Z,16.47
2022-10-04T17:30:31.810Z,16.41
2022-10-04T17:32:45.831Z,16.33
2022-10-04T17:34:58.505Z,16.28
2022-10-04T17:37:06.657Z,16.22
2022-10-04T17:39:33.024Z,16.15
2022-10-04T17:41:50.302Z,16.08
2022-10-04T17:44:17.516Z,16.02
2022-10-04T17:46:23.768Z,15.94
2022-10-04T17:48:47.272Z,15.90
2022-10-04T17:51:13.932Z,15.86
2022-10-04T17:53:39.898Z,15.86
2022-10-04T17:55:47.957Z,15.83
2022-10-04T17:57:54.352Z,15.79
2022-10-04T18:00:08.324Z,15.75
2022-10-04T18:02:13.377Z,15.71
2022-10-04T18:04:20.001Z,15.67
2022-10-04T18:06:30.337Z,15.60
2022-10-04T18:08:43.194Z,15.55
2022-10-04T18:10:51.385Z,15.53
2022-10-04T18:12:59.665Z,15.43
2022-10-04T18:15:07.929Z,15.32
2022-10-04T18:17:15.556Z,15.25
2022-10-04T18:19:37.087Z,15.19
2022-10-04T18:21:49.861Z,15.14
2022-10-04T18:23:55.713Z,15.09
2022-10-04T18:26:03.649Z,15.02
2022-10-04T18:28:15.247Z,14.93
2022-10-04T18:30:21.553Z,14.86
2022-10-04T18:32:36.108Z,14.81
2022-10-04T18:34:40.263Z,14.75
2022-10-04T18:36:54.531Z,14.70
2022-10-04T18:39:17.783Z,14.65
2022-10-04T18:41:23.236Z,14.58
2022-10-04T18:43:29.638Z,14.53
2022-10-04T18:45:33.810Z,14.49
2022-10-04T18:47:39.113Z,14.45
2022-10-04T18:49:48.295Z,14.41
2022-10-04T18:52:03.091Z,14.37
2022-10-04T18:54:13.666Z,14.32
2022-10-04T18:56:17.778Z,14.28
2022-10-04T18:58:50.290Z,14.25
2022-10-04T19:01:15.600Z,14.21
2022-10-04T19:03:26.302Z,14.17
2022-10-04T19:05:37.725Z,14.13
2022-10-04T19:07:46.473Z,14.12
2022-10-04T19:10:08.079Z,14.09
2022-10-04T19:12:14.235Z,14.05
2022-10-04T19:14:25.047Z,14.01
2022-10-04T19:16:37.201Z,13.98
2022-10-04T19:18:58.416Z,13.95
2022-10-04T19:21:08.021Z,13.90
2022-10-04T19:23:19.596Z,13.88
2022-10-04T19:25:33.315Z,13.85
2022-10-04T19:27:39.324Z,13.81
2022-10-04T19:29:57.403Z,13.77
2022-10-04T19:32:03.257Z,13.71
2022-10-04T19:34:11.598Z,13.69
2022-10-04T19:36:26.609Z,13.66
2022-10-04T19:38:55.612Z,13.63
2022-10-04T19:41:04.652Z,13.59
2022-10-04T19:43:12.010Z,13.56
2022-10-04T19:45:24.982Z,13.54
2022-10-04T19:47:40.240Z,13.49
2022-10-04T19:49:47.357Z,13.44
2022-10-04T19:51:54.448Z,13.41
2022-10-04T19:54:04.763Z,13.39
2022-10-04T19:56:10.376Z,13.36
2022-10-04T19:58:25.734Z,13.36
2022-10-04T20:00:30.157Z,13.35
2022-10-04T20:02:33.201Z,13.29
2022-10-04T20:04:37.914Z,13.26
2022-10-04T20:06:49.269Z,13.24
2022-10-04T20:08:59.365Z,13.20
2022-10-04T20:11:16.047Z,13.16
2022-10-04T20:13:23.554Z,13.13
2022-10-04T20:15:46.713Z,13.10
2022-10-04T20:17:50.929Z,13.06
2022-10-04T20:19:54.017Z,13.03
2022-10-04T20:21:58.045Z,13.00
2022-10-04T20:24:01.614Z,12.99
2022-10-04T20:26:06.174Z,12.96
2022-10-04T20:28:09.437Z,12.94
2022-10-04T20:30:14.359Z,12.91
2022-10-04T20:32:50.752Z,12.89
2022-10-04T20:34:55.656Z,12.86
2022-10-04T20:36:58.801Z,12.84
2022-10-04T20:39:03.027Z,12.79
2022-10-04T20:41:06.216Z,12.76
2022-10-04T20:43:30.087Z,12.78
2022-10-04T20:45:33.243Z,12.76
2022-10-04T20:47:39.774Z,12.75
2022-10-04T20:49:44.976Z,12.73
2022-10-04T20:51:50.969Z,12.70
2022-10-04T20:53:54.208Z,12.68
2022-10-04T20:56:11.938Z,12.67
2022-10-04T20:58:26.570Z,12.66
2022-10-04T21:00:34.419Z,12.64
2022-10-04T21:02:37.623Z,12.63
2022-10-04T21:04:44.162Z,12.61
2022-10-04T21:06:55.165Z,12.60
2022-10-04T21:08:58.222Z,12.57
2022-10-04T21:11:23.803Z,12.55
2022-10-04T21:13:54.742Z,12.53
2022-10-04T21:15:57.807Z,12.50
2022-10-04T21:18:03.133Z,12.48
2022-10-04T21:20:07.229Z,12.45
2022-10-04T21:22:12.503Z,12.45
2022-10-04T21:24:36.367Z,12.42
2022-10-04T21:26:39.469Z,12.41
2022-10-04T21:28:42.788Z,12.35
2022-10-04T21:30:45.981Z,12.32
2022-10-04T21:32:49.238Z,12.30
2022-10-04T21:34:54.429Z,12.28
2022-10-04T21:36:58.742Z,12.27
2022-10-04T21:39:03.177Z,12.26
2022-10-04T21:41:06.584Z,12.28
2022-10-04T21:43:09.602Z,12.26
2022-10-04T21:45:12.643Z,12.25
2022-10-04T21:47:15.880Z,12.24
2022-10-04T21:49:18.981Z,12.19
2022-10-04T21:51:21.961Z,12.19
2022-10-04T21:53:24.998Z,12.16
2022-10-04T21:55:29.398Z,12.14
2022-10-04T21:57:35.676Z,12.10
2022-10-04T21:59:39.111Z,12.09
2022-10-04T22:01:42.073Z,12.07
2022-10-04T22:03:45.083Z,12.04
2022-10-04T22:05:48.116Z,12.02
2022-10-04T22:07:51.158Z,12.00
2022-10-04T22:09:54.082Z,12.02
2022-10-04T22:11:58.420Z,12.00
2022-10-04T22:14:01.582Z,11.99
2022-10-04T22:16:04.997Z,11.96
2022-10-04T22:18:08.185Z,11.93
2022-10-04T22:20:11.168Z,11.91
2022-10-04T22:22:15.933Z,11.89
2022-10-04T22:24:20.533Z,11.88
2022-10-04T22:26:24.403Z,11.84
2022-10-04T22:28:30.816Z,11.80
2022-10-04T22:30:34.343Z,11.78
2022-10-04T22:32:39.044Z,11.78
2022-10-04T22:34:42.007Z,11.77
2022-10-04T22:36:46.081Z,11.76
2022-10-04T22:38:52.323Z,11.75
2022-10-04T22:40:55.371Z,11.75
2022-10-04T22:43:00.658Z,11.74
2022-10-04T22:45:09.417Z,11.70
2022-10-04T22:47:14.344Z,11.69
2022-10-04T22:49:19.679Z,11.67
2022-10-04T22:51:22.713Z,11.64
2022-10-04T22:53:25.851Z,11.63
2022-10-04T22:55:28.912Z,11.61
2022-10-04T22:57:32.338Z,11.59
2022-10-04T22:59:37.051Z,11.55
2022-10-04T23:01:41.638Z,11.54
2022-10-04T23:03:46.736Z,11.51
2022-10-04T23:05:49.736Z,11.45
2022-10-04T23:07:52.742Z,11.42
2022-10-04T23:09:55.726Z,11.40
2022-10-04T23:11:58.792Z,11.37
2022-10-04T23:14:02.009Z,11.32
2022-10-04T23:16:12.608Z,11.28
2022-10-04T23:18:18.259Z,11.26
2022-10-04T23:20:21.609Z,11.25
2022-10-04T23:22:28.024Z,11.24
2022-10-04T23:24:31.750Z,11.22
2022-10-04T23:26:39.201Z,11.19
2022-10-04T23:28:42.273Z,11.19
2022-10-04T23:30:46.500Z,11.19
2022-10-04T23:32:51.048Z,11.19
2022-10-04T23:34:57.045Z,11.19
2022-10-04T23:37:00.147Z,11.16
2022-10-04T23:39:03.214Z,11.12
2022-10-04T23:41:10.559Z,11.08
2022-10-04T23:43:19.416Z,11.04
2022-10-04T23:45:23.423Z,11.01
2022-10-04T23:47:32.510Z,11.00
2022-10-04T23:49:35.473Z,11.01
2022-10-04T23:51:39.776Z,11.00
2022-10-04T23:53:43.763Z,10.97
2022-10-04T23:55:47.081Z,10.96
2022-10-04T23:57:50.588Z,10.94
2022-10-04T23:59:53.937Z,10.96
